Wetterdaten: Woche 20.09.10 - 26.09.10 (KW38)
Datum Zeit Temp. A. Feuchte A. Luftdruck Regen Wind Richtung Taupunkt Windchill Windben
20.09.2010 00:00 9,3 C 76 % 1019,8 hPa 0,0 l/m 0,0 km/h N 5,3 C 9,3 C 4,8 km/h
20.09.2010 01:00 8,9 C 76 % 1019,8 hPa 0,0 l/m 0,0 km/h N 4,9 C 8,9 C 1,6 km/h
20.09.2010 02:00 7,6 C 79 % 1020,0 hPa 0,0 l/m 0,0 km/h N 4,2 C 7,6 C 0,0 km/h
20.09.2010 03:00 7,3 C 84 % 1020,0 hPa 0,0 l/m 0,0 km/h N 4,7 C 7,3 C 3,2 km/h
20.09.2010 04:00 7,5 C 84 % 1020,2 hPa 0,0 l/m 0,0 km/h N 5,0 C 7,5 C 2,4 km/h
20.09.2010 05:00 6,8 C 83 % 1020,5 hPa 0,0 l/m 0,0 km/h N 4,1 C 6,8 C 1,6 km/h
20.09.2010 06:00 6,1 C 85 % 1020,8 hPa 0,0 l/m 0,0 km/h N 3,7 C 6,1 C 4,8 km/h
20.09.2010 07:00 6,4 C 86 % 1021,2 hPa 0,0 l/m 0,0 km/h N 4,2 C 6,4 C 3,2 km/h
20.09.2010 08:00 7,5 C 87 % 1021,5 hPa 0,0 l/m 0,0 km/h N 5,5 C 7,5 C 0,8 km/h
20.09.2010 09:00 9,4 C 87 % 1021,8 hPa 0,0 l/m 0,0 km/h N 7,2 C 9,4 C 1,6 km/h
20.09.2010 10:00 11,6 C 80 % 1021,8 hPa 0,0 l/m 0,0 km/h N 8,2 C 11,6 C 2,4 km/h
20.09.2010 11:00 14,1 C 64 % 1021,5 hPa 0,0 l/m 0,0 km/h N 7,4 C 14,1 C 5,6 km/h
20.09.2010 12:00 18,0 C 51 % 1021,0 hPa 0,0 l/m 0,0 km/h N 7,7 C 18,0 C 7,2 km/h
20.09.2010 13:00 19,8 C 45 % 1020,5 hPa 0,0 l/m 0,8 km/h S-SO 7,3 C 19,8 C 8,9 km/h
20.09.2010 14:00 20,0 C 45 % 1020,0 hPa 0,0 l/m 0,8 km/h S-SW 7,7 C 20,0 C 8,0 km/h
20.09.2010 15:00 20,3 C 45 % 1019,7 hPa 0,0 l/m 1,6 km/h W-SW 8,0 C 20,3 C 6,4 km/h
20.09.2010 16:00 20,3 C 42 % 1019,3 hPa 0,0 l/m 1,6 km/h S-SW 6,8 C 20,3 C 9,6 km/h
20.09.2010 17:00 19,6 C 48 % 1019,0 hPa 0,0 l/m 0,0 km/h N 8,3 C 19,6 C 4,0 km/h
20.09.2010 18:00 17,8 C 51 % 1019,2 hPa 0,0 l/m 0,0 km/h N 7,4 C 17,8 C 3,2 km/h
20.09.2010 19:00 15,9 C 57 % 1019,3 hPa 0,0 l/m 0,0 km/h N 7,2 C 15,9 C 0,0 km/h
20.09.2010 20:00 13,3 C 67 % 1019,7 hPa 0,0 l/m 0,0 km/h N 7,1 C 13,3 C 0,0 km/h
20.09.2010 21:00 11,5 C 74 % 1019,8 hPa 0,0 l/m 0,0 km/h N 6,9 C 11,5 C 0,0 km/h
20.09.2010 22:00 10,4 C 77 % 1019,8 hPa 0,0 l/m 0,0 km/h N 6,4 C 10,4 C 0,0 km/h
20.09.2010 23:00 9,5 C 79 % 1019,7 hPa 0,0 l/m 0,0 km/h N 6,0 C 9,5 C 0,0 km/h
21.09.2010 00:00 8,9 C 82 % 1019,3 hPa 0,0 l/m 0,0 km/h N 5,9 C 8,9 C 0,0 km/h
21.09.2010 01:00 8,3 C 83 % 1019,2 hPa 0,0 l/m 0,0 km/h N 5,5 C 8,3 C 0,0 km/h
21.09.2010 02:00 7,8 C 85 % 1019,0 hPa 0,0 l/m 0,0 km/h N 5,4 C 7,8 C 0,0 km/h
21.09.2010 03:00 7,6 C 86 % 1019,0 hPa 0,0 l/m 0,0 km/h N 5,4 C 7,6 C 0,0 km/h
21.09.2010 04:00 7,6 C 87 % 1019,3 hPa 0,0 l/m 0,0 km/h N 5,5 C 7,6 C 0,8 km/h
21.09.2010 05:00 7,7 C 87 % 1019,7 hPa 0,0 l/m 0,0 km/h N 5,7 C 7,7 C 1,6 km/h
21.09.2010 06:00 7,4 C 88 % 1020,0 hPa 0,0 l/m 0,0 km/h N 5,4 C 7,4 C 0,8 km/h
21.09.2010 07:00 7,2 C 88 % 1020,8 hPa 0,0 l/m 0,0 km/h N 5,3 C 7,2 C 0,0 km/h
21.09.2010 08:00 8,1 C 88 % 1021,3 hPa 0,0 l/m 0,0 km/h N 6,3 C 8,1 C 0,8 km/h
21.09.2010 09:00 10,4 C 87 % 1021,5 hPa 0,0 l/m 0,0 km/h N 8,3 C 10,4 C 0,8 km/h
21.09.2010 10:00 12,1 C 88 % 1021,8 hPa 0,0 l/m 0,8 km/h S-SW 10,1 C 12,1 C 5,6 km/h
21.09.2010 11:00 14,3 C 82 % 1021,7 hPa 0,0 l/m 0,0 km/h N 11,2 C 14,3 C 3,2 km/h
21.09.2010 12:00 18,4 C 67 % 1021,3 hPa 0,0 l/m 0,0 km/h N 12,0 C 18,4 C 4,0 km/h
21.09.2010 13:00 20,2 C 62 % 1021,2 hPa 0,0 l/m 0,0 km/h N 12,7 C 20,2 C 4,0 km/h
21.09.2010 14:00 22,5 C 54 % 1020,8 hPa 0,0 l/m 0,0 km/h N 12,5 C 22,5 C 4,8 km/h
21.09.2010 15:00 22,2 C 55 % 1020,5 hPa 0,0 l/m 0,0 km/h N 12,6 C 22,2 C 3,2 km/h
21.09.2010 16:00 21,7 C 56 % 1020,5 hPa 0,0 l/m 0,0 km/h N 12,3 C 21,7 C 4,0 km/h
21.09.2010 17:00 21,3 C 56 % 1020,8 hPa 0,0 l/m 0,0 km/h N 12,2 C 21,3 C 2,4 km/h
21.09.2010 18:00 19,8 C 61 % 1021,0 hPa 0,0 l/m 0,0 km/h N 11,9 C 19,8 C 0,8 km/h
21.09.2010 19:00 18,1 C 67 % 1021,3 hPa 0,0 l/m 0,0 km/h N 11,9 C 18,1 C 3,2 km/h
21.09.2010 20:00 15,6 C 73 % 1021,6 hPa 0,0 l/m 0,0 km/h N 10,8 C 15,6 C 0,8 km/h
21.09.2010 21:00 14,1 C 80 % 1021,8 hPa 0,0 l/m 0,0 km/h N 10,7 C 14,1 C 0,0 km/h
21.09.2010 22:00 13,1 C 83 % 1022,0 hPa 0,0 l/m 0,0 km/h N 10,2 C 13,1 C 1,6 km/h
21.09.2010 23:00 12,1 C 83 % 1022,3 hPa 0,0 l/m 0,0 km/h N 9,3 C 12,1 C 0,0 km/h
22.09.2010 00:00 11,3 C 85 % 1022,5 hPa 0,0 l/m 0,0 km/h N 8,7 C 11,3 C 0,0 km/h
22.09.2010 01:00 10,6 C 86 % 1022,5 hPa 0,0 l/m 0,0 km/h N 8,3 C 10,6 C 0,0 km/h
22.09.2010 02:00 9,9 C 86 % 1022,5 hPa 0,0 l/m 0,0 km/h N 7,7 C 9,9 C 0,0 km/h
22.09.2010 03:00 9,3 C 87 % 1022,5 hPa 0,0 l/m 0,0 km/h N 7,2 C 9,3 C 0,0 km/h
22.09.2010 04:00 9,0 C 87 % 1022,7 hPa 0,0 l/m 0,0 km/h N 7,0 C 9,0 C 0,0 km/h
22.09.2010 05:00 8,8 C 88 % 1022,7 hPa 0,0 l/m 0,0 km/h N 6,9 C 8,8 C 0,0 km/h
22.09.2010 06:00 8,3 C 88 % 1023,2 hPa 0,0 l/m 0,0 km/h N 6,4 C 8,3 C 0,0 km/h
22.09.2010 07:00 8,1 C 88 % 1023,6 hPa 0,0 l/m 0,0 km/h N 6,2 C 8,1 C 0,0 km/h
22.09.2010 08:00 9,3 C 88 % 1024,0 hPa 0,0 l/m 0,0 km/h N 7,4 C 9,3 C 0,0 km/h
22.09.2010 09:00 11,4 C 87 % 1024,1 hPa 0,0 l/m 0,0 km/h N 9,3 C 11,4 C 0,0 km/h
22.09.2010 10:00 13,8 C 87 % 1024,1 hPa 0,0 l/m 0,0 km/h N 11,7 C 13,8 C 2,4 km/h
22.09.2010 11:00 15,6 C 85 % 1024,0 hPa 0,0 l/m 0,0 km/h N 12,9 C 15,6 C 2,4 km/h
22.09.2010 12:00 18,8 C 71 % 1023,7 hPa 0,0 l/m 0,0 km/h N 13,4 C 18,8 C 4,0 km/h
22.09.2010 13:00 21,0 C 61 % 1023,3 hPa 0,0 l/m 0,0 km/h O-NO 13,2 C 21,0 C 4,0 km/h
22.09.2010 14:00 22,0 C 55 % 1022,8 hPa 0,0 l/m 0,8 km/h O 12,5 C 22,0 C 6,4 km/h
22.09.2010 15:00 22,0 C 53 % 1022,5 hPa 0,0 l/m 0,8 km/h O-NO 11,9 C 22,0 C 5,6 km/h
22.09.2010 16:00 21,5 C 50 % 1022,2 hPa 0,0 l/m 1,6 km/h O 10,5 C 21,5 C 5,6 km/h
22.09.2010 17:00 21,4 C 51 % 1022,0 hPa 0,0 l/m 0,0 km/h N 10,7 C 21,4 C 4,8 km/h
22.09.2010 18:00 19,8 C 58 % 1022,0 hPa 0,0 l/m 0,0 km/h N 11,3 C 19,8 C 3,2 km/h
22.09.2010 19:00 18,0 C 65 % 1022,0 hPa 0,0 l/m 0,0 km/h N 11,2 C 18,0 C 0,0 km/h
22.09.2010 20:00 15,3 C 73 % 1022,1 hPa 0,0 l/m 0,0 km/h N 10,4 C 15,3 C 0,0 km/h
22.09.2010 21:00 13,5 C 78 % 1021,9 hPa 0,0 l/m 0,0 km/h N 9,7 C 13,5 C 0,0 km/h
22.09.2010 22:00 12,3 C 82 % 1021,8 hPa 0,0 l/m 0,0 km/h N 9,2 C 12,3 C 0,0 km/h
22.09.2010 23:00 11,6 C 84 % 1021,4 hPa 0,0 l/m 0,0 km/h N 8,9 C 11,6 C 0,0 km/h
23.09.2010 00:00 10,6 C 85 % 1021,2 hPa 0,0 l/m 0,0 km/h N 8,1 C 10,6 C 0,0 km/h
23.09.2010 01:00 9,8 C 86 % 1020,8 hPa 0,0 l/m 0,0 km/h N 7,5 C 9,8 C 0,0 km/h
23.09.2010 02:00 9,3 C 86 % 1020,5 hPa 0,0 l/m 0,0 km/h N 7,0 C 9,3 C 0,0 km/h
23.09.2010 03:00 8,8 C 87 % 1020,3 hPa 0,0 l/m 0,0 km/h N 6,6 C 8,8 C 0,0 km/h
23.09.2010 04:00 8,2 C 87 % 1019,8 hPa 0,0 l/m 0,0 km/h N 6,2 C 8,2 C 0,0 km/h
23.09.2010 05:00 7,9 C 88 % 1019,6 hPa 0,0 l/m 0,0 km/h N 6,0 C 7,9 C 0,0 km/h
23.09.2010 06:00 7,8 C 88 % 1019,4 hPa 0,0 l/m 0,0 km/h N 5,9 C 7,8 C 0,0 km/h
23.09.2010 07:00 7,6 C 88 % 1019,5 hPa 0,0 l/m 0,0 km/h N 5,7 C 7,6 C 0,0 km/h
23.09.2010 08:00 9,4 C 87 % 1019,3 hPa 0,0 l/m 0,0 km/h N 7,3 C 9,4 C 0,0 km/h
23.09.2010 09:00 13,0 C 87 % 1018,9 hPa 0,0 l/m 0,8 km/h SW 10,9 C 13,0 C 7,3 km/h
23.09.2010 10:00 16,5 C 77 % 1018,8 hPa 0,0 l/m 1,6 km/h SO 12,4 C 16,5 C 16,1 km/h
23.09.2010 11:00 19,0 C 65 % 1018,4 hPa 0,0 l/m 2,4 km/h O 12,3 C 19,0 C 17,7 km/h
23.09.2010 12:00 22,0 C 53 % 1017,8 hPa 0,0 l/m 2,4 km/h O 11,8 C 22,0 C 17,7 km/h
23.09.2010 13:00 23,0 C 50 % 1017,2 hPa 0,0 l/m 2,4 km/h O-SO 11,8 C 23,0 C 20,1 km/h
23.09.2010 14:00 23,4 C 48 % 1016,5 hPa 0,0 l/m 2,7 km/h O 11,7 C 23,4 C 9,7 km/h
23.09.2010 15:00 23,6 C 48 % 1016,0 hPa 0,0 l/m 3,1 km/h N-NO 12,0 C 23,6 C 14,9 km/h
23.09.2010 16:00 23,2 C 49 % 1015,6 hPa 0,0 l/m 2,7 km/h O-NO 11,9 C 23,2 C 9,7 km/h
23.09.2010 17:00 22,5 C 53 % 1015,3 hPa 0,0 l/m 2,0 km/h NO 12,4 C 22,5 C 12,9 km/h
23.09.2010 18:00 20,5 C 57 % 1015,3 hPa 0,0 l/m 0,8 km/h N 11,7 C 20,5 C 5,2 km/h
23.09.2010 19:00 18,5 C 63 % 1015,2 hPa 0,0 l/m 0,2 km/h N 11,2 C 18,5 C 2,4 km/h
23.09.2010 20:00 17,0 C 68 % 1015,0 hPa 0,0 l/m 0,1 km/h N 11,0 C 17,0 C 2,0 km/h
23.09.2010 21:00 16,1 C 73 % 1014,8 hPa 0,0 l/m 0,3 km/h N 11,2 C 16,1 C 4,0 km/h
23.09.2010 22:00 16,5 C 73 % 1014,3 hPa 0,0 l/m 0,7 km/h N 11,5 C 16,5 C 6,0 km/h
23.09.2010 23:00 16,3 C 72 % 1013,5 hPa 0,0 l/m 0,6 km/h N 11,3 C 16,3 C 5,6 km/h
24.09.2010 00:00 16,0 C 74 % 1012,8 hPa 0,0 l/m 0,4 km/h N 11,4 C 16,0 C 6,0 km/h
24.09.2010 01:00 15,4 C 75 % 1012,2 hPa 0,0 l/m 0,1 km/h N 10,9 C 15,4 C 2,8 km/h
24.09.2010 02:00 14,6 C 78 % 1011,6 hPa 0,0 l/m 0,2 km/h N 10,8 C 14,6 C 2,0 km/h
24.09.2010 03:00 13,9 C 79 % 1011,0 hPa 0,0 l/m 0,0 km/h N 10,4 C 13,9 C 0,0 km/h
24.09.2010 04:00 12,4 C 80 % 1010,6 hPa 0,0 l/m 0,0 km/h N 9,0 C 12,4 C 0,0 km/h
24.09.2010 05:00 11,6 C 84 % 1010,1 hPa 0,0 l/m 0,0 km/h N 8,9 C 11,6 C 0,0 km/h
24.09.2010 06:00 11,0 C 85 % 1009,7 hPa 0,0 l/m 0,0 km/h N 8,7 C 11,0 C 0,0 km/h
24.09.2010 07:00 12,2 C 87 % 1009,5 hPa 0,0 l/m 0,0 km/h N 10,1 C 12,2 C 1,6 km/h
24.09.2010 08:00 13,4 C 87 % 1009,3 hPa 0,0 l/m 0,0 km/h N 11,3 C 13,4 C 0,0 km/h
24.09.2010 09:00 14,8 C 87 % 1008,8 hPa 0,0 l/m 0,5 km/h O-SO 12,6 C 14,8 C 4,4 km/h
24.09.2010 10:00 17,5 C 78 % 1008,2 hPa 0,0 l/m 3,0 km/h N-NO 13,6 C 17,5 C 18,5 km/h
24.09.2010 11:00 19,9 C 68 % 1007,5 hPa 0,0 l/m 3,9 km/h S-SW 13,8 C 19,9 C 18,9 km/h
24.09.2010 12:00 22,1 C 62 % 1006,8 hPa 0,0 l/m 3,4 km/h O 14,5 C 22,1 C 18,9 km/h
24.09.2010 13:00 23,1 C 60 % 1006,0 hPa 0,0 l/m 2,7 km/h O-SO 14,7 C 23,1 C 13,7 km/h
24.09.2010 14:00 23,3 C 59 % 1005,2 hPa 0,0 l/m 3,4 km/h O 14,7 C 23,3 C 12,1 km/h
24.09.2010 15:00 23,1 C 59 % 1004,6 hPa 0,0 l/m 3,4 km/h NO 14,5 C 23,1 C 15,3 km/h
24.09.2010 16:00 23,4 C 58 % 1004,0 hPa 0,0 l/m 3,3 km/h O-SO 14,6 C 23,4 C 12,5 km/h
24.09.2010 17:00 22,7 C 61 % 1003,6 hPa 0,0 l/m 2,1 km/h O-SO 14,7 C 22,7 C 10,9 km/h
24.09.2010 18:00 21,3 C 66 % 1003,3 hPa 0,0 l/m 1,0 km/h N-NW 14,7 C 21,3 C 6,4 km/h
24.09.2010 19:00 19,8 C 69 % 1003,3 hPa 0,0 l/m 1,6 km/h W 14,0 C 19,8 C 10,4 km/h
24.09.2010 20:00 19,0 C 72 % 1003,4 hPa 0,0 l/m 1,3 km/h S 13,8 C 19,0 C 9,3 km/h
24.09.2010 21:00 18,3 C 75 % 1003,3 hPa 0,0 l/m 1,0 km/h N 13,8 C 18,3 C 8,0 km/h
24.09.2010 22:00 17,7 C 78 % 1003,2 hPa 0,0 l/m 0,3 km/h N 13,8 C 17,7 C 4,0 km/h
24.09.2010 23:00 17,2 C 81 % 1002,5 hPa 0,0 l/m 0,6 km/h N 13,8 C 17,2 C 7,2 km/h
25.09.2010 00:00 17,1 C 82 % 1002,2 hPa 0,0 l/m 0,6 km/h S 14,0 C 17,1 C 4,8 km/h
25.09.2010 01:00 16,5 C 83 % 1002,0 hPa 0,0 l/m 0,0 km/h N 13,6 C 16,5 C 0,4 km/h
25.09.2010 02:00 16,4 C 85 % 1002,1 hPa 0,0 l/m 0,1 km/h N 13,9 C 16,4 C 2,8 km/h
25.09.2010 03:00 16,6 C 85 % 1002,1 hPa 0,0 l/m 0,0 km/h N 14,1 C 16,6 C 0,8 km/h
25.09.2010 04:00 16,1 C 85 % 1002,2 hPa 0,0 l/m 0,1 km/h N 13,6 C 16,1 C 0,8 km/h
25.09.2010 05:00 15,1 C 85 % 1002,0 hPa 0,0 l/m 0,0 km/h N 12,6 C 15,1 C 0,4 km/h
25.09.2010 06:00 14,1 C 86 % 1002,2 hPa 0,0 l/m 0,0 km/h N 11,7 C 14,1 C 0,0 km/h
25.09.2010 07:00 13,6 C 85 % 1002,3 hPa 0,0 l/m 0,1 km/h N 11,1 C 13,6 C 2,0 km/h
25.09.2010 08:00 13,4 C 85 % 1001,9 hPa 0,0 l/m 0,1 km/h N 10,9 C 13,4 C 2,0 km/h
25.09.2010 09:00 13,6 C 84 % 1001,8 hPa 0,0 l/m 0,2 km/h N 10,9 C 13,6 C 2,4 km/h
25.09.2010 10:00 14,2 C 81 % 1001,7 hPa 0,0 l/m 0,8 km/h O 11,0 C 14,2 C 3,6 km/h
25.09.2010 11:00 15,0 C 78 % 1001,3 hPa 0,0 l/m 0,9 km/h O 11,2 C 15,0 C 5,2 km/h
25.09.2010 12:00 15,8 C 76 % 1001,0 hPa 0,0 l/m 1,5 km/h O 11,5 C 15,8 C 6,4 km/h
25.09.2010 13:00 16,5 C 75 % 1000,7 hPa 0,0 l/m 0,3 km/h NO 12,0 C 16,5 C 2,4 km/h
25.09.2010 14:00 17,3 C 74 % 1000,3 hPa 0,0 l/m 0,5 km/h N 12,6 C 17,3 C 4,4 km/h
25.09.2010 15:00 17,6 C 76 % 999,9 hPa 0,0 l/m 0,0 km/h N 13,2 C 17,6 C 0,4 km/h
25.09.2010 16:00 17,5 C 77 % 999,8 hPa 0,0 l/m 0,0 km/h N 13,3 C 17,5 C 0,0 km/h
25.09.2010 17:00 17,3 C 79 % 999,6 hPa 0,8 l/m 0,0 km/h N 13,5 C 17,3 C 0,0 km/h
25.09.2010 18:00 16,8 C 82 % 999,5 hPa 3,4 l/m 0,0 km/h N 13,7 C 16,8 C 0,0 km/h
25.09.2010 19:00 16,3 C 85 % 999,4 hPa 1,0 l/m 0,0 km/h N 13,7 C 16,3 C 0,0 km/h
25.09.2010 20:00 16,0 C 87 % 999,5 hPa 4,7 l/m 0,0 km/h N 13,7 C 16,0 C 0,0 km/h
25.09.2010 21:00 15,6 C 87 % 999,8 hPa 8,8 l/m 0,6 km/h N-NO 13,4 C 15,6 C 3,2 km/h
25.09.2010 22:00 13,7 C 87 % 1000,0 hPa 8,8 l/m 0,5 km/h SO 11,6 C 13,7 C 6,0 km/h
25.09.2010 23:00 12,6 C 87 % 999,8 hPa 4,4 l/m 2,7 km/h SO 10,5 C 12,6 C 14,1 km/h
26.09.2010 00:00 12,3 C 88 % 999,5 hPa 3,1 l/m 5,0 km/h W-SW 10,4 C 12,3 C 21,7 km/h
26.09.2010 01:00 12,2 C 87 % 999,1 hPa 4,7 l/m 5,4 km/h N-NO 10,1 C 12,2 C 23,3 km/h
26.09.2010 02:00 12,1 C 88 % 998,5 hPa 1,8 l/m 5,5 km/h SW 10,1 C 12,0 C 20,5 km/h
26.09.2010 03:00 11,9 C 88 % 998,3 hPa 1,0 l/m 6,2 km/h SW 10,0 C 11,8 C 27,8 km/h
26.09.2010 04:00 11,8 C 88 % 998,5 hPa 2,9 l/m 7,8 km/h SW 9,8 C 10,9 C 31,0 km/h
26.09.2010 05:00 11,4 C 87 % 998,6 hPa 2,3 l/m 9,4 km/h W 9,3 C 9,5 C 28,2 km/h
26.09.2010 06:00 10,9 C 87 % 998,8 hPa 0,8 l/m 10,7 km/h N 8,7 C 8,2 C 37,8 km/h
26.09.2010 07:00 10,7 C 85 % 999,3 hPa 0,8 l/m 11,5 km/h W 8,3 C 7,6 C 31,8 km/h
26.09.2010 08:00 10,8 C 82 % 999,8 hPa 0,3 l/m 12,8 km/h SW 7,8 C 7,0 C 37,8 km/h
26.09.2010 09:00 10,8 C 78 % 1000,5 hPa 0,0 l/m 13,4 km/h SW 7,2 C 6,8 C 37,4 km/h
26.09.2010 10:00 10,9 C 76 % 1001,1 hPa 0,0 l/m 14,6 km/h NW 6,9 C 6,4 C 43,4 km/h
26.09.2010 11:00 11,4 C 75 % 1001,8 hPa 0,0 l/m 12,2 km/h S 7,1 C 8,0 C 38,2 km/h
26.09.2010 12:00 13,0 C 69 % 1002,0 hPa 0,0 l/m 14,5 km/h W-SW 7,4 C 8,9 C 46,3 km/h
26.09.2010 13:00 12,5 C 70 % 1002,5 hPa 0,0 l/m 13,3 km/h W-SW 7,2 C 8,9 C 39,8 km/h
26.09.2010 14:00 12,8 C 69 % 1002,8 hPa 0,0 l/m 12,8 km/h NW 7,2 C 9,4 C 40,7 km/h
26.09.2010 15:00 12,8 C 69 % 1003,3 hPa 0,0 l/m 9,6 km/h N-NO 7,3 C 10,9 C 29,4 km/h
26.09.2010 16:00 12,4 C 72 % 1004,3 hPa 0,0 l/m 6,4 km/h NW 7,5 C 12,1 C 26,1 km/h
26.09.2010 17:00 11,7 C 74 % 1004,6 hPa 0,3 l/m 6,6 km/h NW 7,2 C 11,5 C 25,4 km/h
26.09.2010 18:00 11,1 C 78 % 1004,6 hPa 0,3 l/m 6,3 km/h SW 7,5 C 10,8 C 25,7 km/h
26.09.2010 19:00 10,7 C 81 % 1005,6 hPa 1,3 l/m 4,8 km/h W-SW 7,5 C 10,7 C 22,1 km/h
26.09.2010 20:00 10,3 C 84 % 1005,9 hPa 4,7 l/m 4,7 km/h NW 7,7 C 10,3 C 19,7 km/h
26.09.2010 21:00 10,0 C 85 % 1006,3 hPa 2,1 l/m 5,0 km/h W 7,6 C 10,0 C 25,3 km/h
26.09.2010 22:00 10,1 C 82 % 1006,7 hPa 0,3 l/m 3,0 km/h SW 7,2 C 10,1 C 15,7 km/h
26.09.2010 23:00 10,2 C 82 % 1007,2 hPa 1,3 l/m 2,9 km/h O-SO 7,2 C 10,2 C 12,9 km/h
Min-Datum _ 20.09.10 20.09.10 26.09.10 - 20.09.10 - 20.09.10 20.09.10 20.09.10
_ Min-Zeit 06:30 16:00 03:00 - 00:00 - 06:00 06:00 01:30
Minimum _ 5,9 C 40 % 998,2 hPa - 0,0 km/h - 3,5 C 6,0 C 0,0 km/h
Max-Datum _ 23.09.10 21.09.10 22.09.10 25.09.10 26.09.10 - 24.09.10 23.09.10 26.09.10
_ Max-Zeit 15:15 06:30 09:30 21:45 12:30 - 13:30 15:15 12:30
Maximum _ 23,7 C 88 % 1024,2 hPa 8,8 l/m 17,3 km/h
W-SW
- 15,0 C 23,7 C 53,1 km/h
W-SW
Durchschnitt _ 14,3 C 75 % 1013,1 hPa #59,8 l/m 1,6 km/h NW 9,7 C 14,1 C 7,5 km/h